createdAt,value
2019-05-07T00:01:23.272Z,101456.61
2019-05-07T00:03:53.036Z,101453.50
2019-05-07T00:06:23.205Z,101460.19
2019-05-07T00:08:52.975Z,101458.82
2019-05-07T00:11:22.826Z,101458.38
2019-05-07T00:13:53.699Z,101457.59
2019-05-07T00:16:23.614Z,101448.84
2019-05-07T00:18:54.308Z,101444.50
2019-05-07T00:21:24.218Z,101444.50
2019-05-07T00:23:54.488Z,101442.72
2019-05-07T00:26:24.174Z,101433.96
2019-05-07T00:28:54.009Z,101433.52
2019-05-07T00:31:23.981Z,101434.74
2019-05-07T00:33:53.663Z,101428.77
2019-05-07T00:36:48.186Z,101431.29
2019-05-07T00:39:39.748Z,101429.99
2019-05-07T00:42:23.783Z,101433.06
2019-05-07T00:45:13.042Z,101431.62
2019-05-07T00:47:32.992Z,101429.44
2019-05-07T00:50:07.557Z,101430.73
2019-05-07T00:52:37.234Z,101429.88
2019-05-07T00:55:07.045Z,101425.65
2019-05-07T00:57:36.737Z,101421.41
2019-05-07T01:00:07.541Z,101425.01
2019-05-07T01:02:37.263Z,101421.36
2019-05-07T01:05:07.052Z,101421.73
2019-05-07T01:07:36.731Z,101421.36
2019-05-07T01:10:07.202Z,101422.25
2019-05-07T01:12:36.884Z,101423.63
2019-05-07T01:15:07.281Z,101420.62
2019-05-07T01:17:36.974Z,101424.25
2019-05-07T01:20:07.510Z,101419.53
2019-05-07T01:22:36.653Z,101427.05
2019-05-07T01:25:05.343Z,101424.50
2019-05-07T01:27:33.847Z,101422.89
2019-05-07T01:30:02.722Z,101423.92
2019-05-07T01:32:39.416Z,101427.41
2019-05-07T01:35:17.141Z,101423.24
2019-05-07T01:37:46.858Z,101426.97
2019-05-07T01:40:16.534Z,101437.02
2019-05-07T01:42:46.537Z,101433.19
2019-05-07T01:45:16.883Z,101430.70
2019-05-07T01:47:46.641Z,101433.80
2019-05-07T01:50:16.506Z,101432.23
2019-05-07T01:52:47.409Z,101433.12
2019-05-07T01:55:17.099Z,101435.67
2019-05-07T01:57:46.815Z,101437.20
2019-05-07T02:00:16.717Z,101435.14
2019-05-07T02:02:52.071Z,101435.34
2019-05-07T02:05:32.655Z,101434.05
2019-05-07T02:08:04.853Z,101434.48
2019-05-07T02:10:42.863Z,101433.19
2019-05-07T02:13:14.060Z,101430.25
2019-05-07T02:15:57.394Z,101431.27
2019-05-07T02:18:15.133Z,101430.10
2019-05-07T02:20:45.006Z,101431.62
2019-05-07T02:23:14.709Z,101432.80
2019-05-07T02:25:44.745Z,101432.45
2019-05-07T02:28:14.662Z,101434.22
2019-05-07T02:30:44.794Z,101436.02
2019-05-07T02:33:14.627Z,101441.72
2019-05-07T02:35:44.304Z,101436.18
2019-05-07T02:38:33.646Z,101439.22
2019-05-07T02:41:10.085Z,101434.16
2019-05-07T02:43:42.859Z,101433.02
2019-05-07T02:46:30.548Z,101440.00
2019-05-07T02:49:14.842Z,101441.39
2019-05-07T02:51:54.430Z,101437.72
2019-05-07T02:54:43.808Z,101438.41
2019-05-07T02:57:17.069Z,101442.00
2019-05-07T02:59:45.154Z,101441.21
2019-05-07T03:02:14.863Z,101446.42
2019-05-07T03:04:44.720Z,101437.83
2019-05-07T03:07:14.392Z,101438.27
2019-05-07T03:09:44.621Z,101436.03
2019-05-07T03:12:14.697Z,101432.45
2019-05-07T03:14:44.801Z,101430.66
2019-05-07T03:17:15.017Z,101428.48
2019-05-07T03:19:46.538Z,101426.23
2019-05-07T03:22:16.551Z,101434.75
2019-05-07T03:24:54.664Z,101430.36
2019-05-07T03:27:24.325Z,101426.84
2019-05-07T03:30:29.692Z,101435.41
2019-05-07T03:33:07.303Z,101428.42
2019-05-07T03:35:46.481Z,101430.52
2019-05-07T03:38:15.432Z,101426.09
2019-05-07T03:40:45.129Z,101426.41
2019-05-07T03:43:14.886Z,101419.48
2019-05-07T03:46:15.792Z,101427.04
2019-05-07T03:48:47.039Z,101426.16
2019-05-07T03:51:16.935Z,101418.41
2019-05-07T03:53:46.622Z,101425.30
2019-05-07T03:56:16.309Z,101423.16
2019-05-07T03:58:45.991Z,101421.00
2019-05-07T04:01:15.683Z,101420.97
2019-05-07T04:03:45.368Z,101418.41
2019-05-07T04:06:15.122Z,101418.88
2019-05-07T04:08:44.806Z,101415.81
2019-05-07T04:11:15.091Z,101418.75
2019-05-07T04:13:44.808Z,101413.92
2019-05-07T04:16:14.562Z,101405.28
2019-05-07T04:18:44.319Z,101402.63
2019-05-07T04:21:14.477Z,101406.92
2019-05-07T04:23:44.607Z,101409.11
2019-05-07T04:26:23.468Z,101403.41
2019-05-07T04:29:05.917Z,101413.28
2019-05-07T04:31:43.696Z,101410.59
2019-05-07T04:34:17.763Z,101412.67
2019-05-07T04:36:49.222Z,101409.16
2019-05-07T04:39:22.933Z,101410.53
2019-05-07T04:41:53.075Z,101407.49
2019-05-07T04:44:23.646Z,101404.89
2019-05-07T04:46:53.913Z,101402.58
2019-05-07T04:49:24.224Z,101400.20
2019-05-07T04:52:03.673Z,101395.64
2019-05-07T04:54:32.937Z,101399.23
2019-05-07T04:57:05.399Z,101394.25
2019-05-07T04:59:36.055Z,101394.42
2019-05-07T05:02:13.660Z,101394.19
2019-05-07T05:04:44.058Z,101403.47
2019-05-07T05:07:13.409Z,101405.42
2019-05-07T05:09:43.313Z,101400.91
2019-05-07T05:12:13.274Z,101402.99
2019-05-07T05:14:44.053Z,101409.31
2019-05-07T05:17:14.066Z,101412.28
2019-05-07T05:19:44.103Z,101413.72
2019-05-07T05:22:31.837Z,101416.31
2019-05-07T05:25:12.125Z,101413.20
2019-05-07T05:27:42.997Z,101412.52
2019-05-07T05:30:19.157Z,101412.68
2019-05-07T05:32:49.032Z,101411.65
2019-05-07T05:35:18.794Z,101412.30
2019-05-07T05:37:48.478Z,101417.58
2019-05-07T05:40:19.418Z,101416.95
2019-05-07T05:42:55.435Z,101417.22
2019-05-07T05:45:34.281Z,101414.36
2019-05-07T05:48:08.395Z,101417.59
2019-05-07T05:50:50.037Z,101415.16
2019-05-07T05:53:29.043Z,101418.38
2019-05-07T05:56:02.376Z,101417.68
2019-05-07T05:58:43.036Z,101422.28
2019-05-07T06:01:28.163Z,101415.59
2019-05-07T06:04:16.479Z,101410.33
2019-05-07T06:07:10.389Z,101411.10
2019-05-07T06:09:43.560Z,101414.81
2019-05-07T06:12:35.108Z,101415.89
2019-05-07T06:15:17.169Z,101419.23
2019-05-07T06:18:20.485Z,101417.19
2019-05-07T06:20:57.147Z,101418.22
2019-05-07T06:23:42.094Z,101414.27
2019-05-07T06:26:12.694Z,101422.00
2019-05-07T06:28:42.659Z,101421.73
2019-05-07T06:31:12.772Z,101418.78
2019-05-07T06:33:43.100Z,101423.19
2019-05-07T06:36:12.835Z,101420.75
2019-05-07T06:38:48.468Z,101421.00
2019-05-07T06:41:43.148Z,101419.67
2019-05-07T06:44:19.500Z,101413.91
2019-05-07T06:46:49.330Z,101416.18
2019-05-07T06:49:22.157Z,101418.19
2019-05-07T06:51:52.809Z,101412.98
2019-05-07T06:54:22.834Z,101419.54
2019-05-07T06:56:52.951Z,101418.94
2019-05-07T06:59:43.535Z,101415.88
2019-05-07T07:02:35.418Z,101412.95
2019-05-07T07:05:42.571Z,101414.94
2019-05-07T07:08:20.227Z,101415.67
2019-05-07T07:11:15.752Z,101417.06
2019-05-07T07:13:45.491Z,101418.22
2019-05-07T07:16:15.594Z,101422.65
2019-05-07T07:18:51.956Z,101421.67
2019-05-07T07:21:16.694Z,101416.33
2019-05-07T07:23:46.416Z,101411.75
2019-05-07T07:26:16.180Z,101415.56
2019-05-07T07:28:45.868Z,101413.37
2019-05-07T07:31:34.957Z,101412.63
2019-05-07T07:34:04.994Z,101411.50
2019-05-07T07:36:42.340Z,101409.02
2019-05-07T07:39:12.702Z,101403.90
2019-05-07T07:41:49.727Z,101404.64
2019-05-07T07:44:19.403Z,101401.45
2019-05-07T07:46:49.090Z,101399.08
2019-05-07T07:49:18.962Z,101400.73
2019-05-07T07:51:48.720Z,101399.49
2019-05-07T07:54:18.754Z,101400.67
2019-05-07T07:56:57.726Z,101396.86
2019-05-07T07:59:49.571Z,101391.25
2019-05-07T08:02:38.505Z,101395.91
2019-05-07T08:05:08.489Z,101392.02
2019-05-07T08:07:38.299Z,101393.33
2019-05-07T08:10:08.551Z,101394.03
2019-05-07T08:12:37.193Z,101395.09
2019-05-07T08:15:17.385Z,101389.53
2019-05-07T08:17:41.775Z,101391.44
2019-05-07T08:20:12.816Z,101391.74
2019-05-07T08:22:42.893Z,101384.64
2019-05-07T08:25:13.015Z,101387.95
2019-05-07T08:27:42.766Z,101387.37
2019-05-07T08:30:15.835Z,101379.72
2019-05-07T08:32:59.165Z,101381.45
2019-05-07T08:35:52.143Z,101381.55
2019-05-07T08:38:21.982Z,101376.36
2019-05-07T08:40:52.132Z,101380.31
2019-05-07T08:43:21.991Z,101379.28
2019-05-07T08:46:13.700Z,101378.67
2019-05-07T08:48:46.641Z,101383.80
2019-05-07T08:51:16.405Z,101382.03
2019-05-07T08:53:47.720Z,101375.28
2019-05-07T08:56:17.654Z,101376.78
2019-05-07T08:58:47.701Z,101370.50
2019-05-07T09:01:17.380Z,101376.48
2019-05-07T09:03:47.053Z,101375.52
2019-05-07T09:06:18.384Z,101374.54
2019-05-07T09:08:48.126Z,101373.23
2019-05-07T09:11:17.818Z,101368.62
2019-05-07T09:13:47.487Z,101363.29
2019-05-07T09:16:15.785Z,101359.22
2019-05-07T09:18:44.079Z,101365.84
2019-05-07T09:21:12.764Z,101365.84
2019-05-07T09:23:42.358Z,101361.10
2019-05-07T09:26:13.031Z,101362.58
2019-05-07T09:28:57.637Z,101361.45
2019-05-07T09:31:53.984Z,101351.92
2019-05-07T09:34:23.394Z,101356.32
2019-05-07T09:36:53.591Z,101356.37
2019-05-07T09:39:22.167Z,101356.52
2019-05-07T09:41:52.505Z,101349.05
2019-05-07T09:44:22.183Z,101339.03
2019-05-07T09:46:52.043Z,101339.70
2019-05-07T09:49:22.143Z,101342.67
2019-05-07T09:51:51.963Z,101339.95
2019-05-07T09:54:20.317Z,101340.83
2019-05-07T09:56:48.792Z,101336.65
2019-05-07T09:59:17.082Z,101338.52
2019-05-07T10:01:45.392Z,101337.95
2019-05-07T10:04:13.688Z,101335.41
2019-05-07T10:06:42.490Z,101330.17
2019-05-07T10:09:12.033Z,101328.74
2019-05-07T10:11:52.344Z,101323.58
2019-05-07T10:14:22.295Z,101322.54
2019-05-07T10:16:56.544Z,101317.78
2019-05-07T10:19:24.832Z,101317.05
2019-05-07T10:21:53.140Z,101312.38
2019-05-07T10:24:22.264Z,101306.25
2019-05-07T10:26:50.618Z,101306.61
2019-05-07T10:29:18.910Z,101306.27
2019-05-07T10:31:47.213Z,101306.31
2019-05-07T10:34:15.522Z,101304.84
2019-05-07T10:36:43.822Z,101304.88
2019-05-07T10:39:12.893Z,101302.13
2019-05-07T10:41:42.517Z,101292.83
2019-05-07T10:44:11.943Z,101287.98
2019-05-07T10:47:01.860Z,101297.03
2019-05-07T10:49:37.567Z,101287.50
2019-05-07T10:52:07.374Z,101280.82
2019-05-07T10:54:37.036Z,101281.75
2019-05-07T10:57:07.775Z,101283.65
2019-05-07T10:59:37.442Z,101281.23
2019-05-07T11:02:16.127Z,101277.74
2019-05-07T11:04:46.043Z,101278.70
2019-05-07T11:07:15.908Z,101280.69
2019-05-07T11:09:45.594Z,101275.84
2019-05-07T11:12:15.266Z,101277.05
2019-05-07T11:14:45.914Z,101273.57
2019-05-07T11:17:33.031Z,101275.00
2019-05-07T11:20:02.703Z,101270.09
2019-05-07T11:22:32.879Z,101274.30
2019-05-07T11:25:03.116Z,101263.05
2019-05-07T11:27:33.193Z,101261.42
2019-05-07T11:30:03.043Z,101261.42
2019-05-07T11:32:33.856Z,101261.70
2019-05-07T11:35:03.701Z,101252.83
2019-05-07T11:37:33.627Z,101252.20
2019-05-07T11:40:03.467Z,101248.19
2019-05-07T11:42:51.962Z,101242.48
2019-05-07T11:45:27.963Z,101237.80
2019-05-07T11:47:57.638Z,101240.37
2019-05-07T11:50:35.979Z,101235.38
2019-05-07T11:53:09.859Z,101238.45
2019-05-07T11:55:41.916Z,101238.95
2019-05-07T11:58:12.845Z,101237.56
2019-05-07T12:00:42.587Z,101238.76
2019-05-07T12:03:11.484Z,101237.52
2019-05-07T12:05:42.295Z,101231.28
2019-05-07T12:08:13.066Z,101228.30
2019-05-07T12:10:41.684Z,101225.36
2019-05-07T12:13:12.255Z,101221.36
2019-05-07T12:15:42.846Z,101221.88
2019-05-07T12:18:12.031Z,101224.07
2019-05-07T12:20:40.983Z,101222.34
2019-05-07T12:23:12.001Z,101214.22
2019-05-07T12:25:42.218Z,101213.70
2019-05-07T12:28:13.324Z,101204.38
2019-05-07T12:30:42.824Z,101200.46
2019-05-07T12:33:12.371Z,101203.20
2019-05-07T12:35:42.319Z,101197.83
2019-05-07T12:38:12.656Z,101198.09
2019-05-07T12:40:41.789Z,101198.10
2019-05-07T12:43:10.590Z,101195.28
2019-05-07T12:45:38.111Z,101190.16
2019-05-07T12:48:05.664Z,101184.55
2019-05-07T12:50:33.099Z,101181.55
2019-05-07T12:53:02.237Z,101182.56
2019-05-07T12:55:29.857Z,101176.71
2019-05-07T12:57:57.292Z,101174.03
2019-05-07T13:00:48.678Z,101173.98
2019-05-07T13:03:23.407Z,101167.16
2019-05-07T13:05:52.239Z,101164.34
2019-05-07T13:08:23.048Z,101157.00
2019-05-07T13:10:52.305Z,101160.25
2019-05-07T13:13:22.622Z,101154.80
2019-05-07T13:15:52.368Z,101155.05
2019-05-07T13:18:22.632Z,101161.65
2019-05-07T13:20:52.462Z,101159.00
2019-05-07T13:23:23.181Z,101159.71
2019-05-07T13:25:53.047Z,101155.59
2019-05-07T13:28:22.881Z,101156.50
2019-05-07T13:30:53.532Z,101154.84
2019-05-07T13:33:23.581Z,101137.53
2019-05-07T13:35:53.498Z,101151.89
2019-05-07T13:38:57.438Z,101151.89
2019-05-07T13:41:58.168Z,101144.25
2019-05-07T13:44:40.286Z,101144.96
2019-05-07T13:47:30.161Z,101139.09
2019-05-07T13:50:02.450Z,101132.34
2019-05-07T13:52:33.078Z,101138.69
2019-05-07T13:55:03.310Z,101137.61
2019-05-07T13:57:33.057Z,101127.98
2019-05-07T14:00:05.038Z,101130.83
2019-05-07T14:02:36.598Z,101124.72
2019-05-07T14:05:07.496Z,101131.27
2019-05-07T14:07:41.552Z,101124.98
2019-05-07T14:10:12.662Z,101124.56
2019-05-07T14:12:43.373Z,101122.60
2019-05-07T14:15:14.017Z,101123.15
2019-05-07T14:17:43.776Z,101119.98
2019-05-07T14:20:13.814Z,101113.84
2019-05-07T14:22:43.627Z,101115.18
2019-05-07T14:25:13.452Z,101112.70
2019-05-07T14:27:43.142Z,101109.72
2019-05-07T14:30:13.154Z,101115.63
2019-05-07T14:32:53.695Z,101110.36
2019-05-07T14:35:52.070Z,101105.66
2019-05-07T14:38:43.717Z,101112.03
2019-05-07T14:41:13.462Z,101106.78
2019-05-07T14:43:54.371Z,101103.31
2019-05-07T14:46:24.217Z,101095.38
2019-05-07T14:48:52.664Z,101093.67
2019-05-07T14:51:22.078Z,101083.20
2019-05-07T14:53:50.558Z,101083.38
2019-05-07T14:56:18.855Z,101077.98
2019-05-07T14:58:47.313Z,101078.84
2019-05-07T15:01:15.613Z,101078.27
2019-05-07T15:03:43.991Z,101072.11
2019-05-07T15:06:12.669Z,101069.62
2019-05-07T15:08:42.912Z,101066.27
2019-05-07T15:11:11.393Z,101066.41
2019-05-07T15:13:39.924Z,101054.94
2019-05-07T15:16:08.242Z,101055.06
2019-05-07T15:18:49.837Z,101050.28
2019-05-07T15:21:18.411Z,101050.61
2019-05-07T15:23:47.159Z,101046.33
2019-05-07T15:26:14.664Z,101047.69
2019-05-07T15:28:42.087Z,101041.97
2019-05-07T15:31:12.087Z,101040.40
2019-05-07T15:33:39.145Z,101045.44
2019-05-07T15:36:06.799Z,101036.55
2019-05-07T15:38:34.392Z,101034.34
2019-05-07T15:41:02.715Z,101033.23
2019-05-07T15:43:32.368Z,101032.23
2019-05-07T15:46:01.843Z,101025.20
2019-05-07T15:48:28.617Z,101028.67
2019-05-07T15:50:56.047Z,101027.02
2019-05-07T15:53:23.707Z,101028.92
2019-05-07T15:55:52.288Z,101024.98
2019-05-07T15:58:20.168Z,101024.52
2019-05-07T16:00:47.600Z,101021.64
2019-05-07T16:03:15.035Z,101023.59
2019-05-07T16:05:45.585Z,101020.84
2019-05-07T16:08:17.092Z,101018.46
2019-05-07T16:10:47.016Z,101017.48
2019-05-07T16:13:22.451Z,101011.96
2019-05-07T16:15:52.734Z,101002.86
2019-05-07T16:18:25.013Z,101008.61
2019-05-07T16:20:55.572Z,100999.29
2019-05-07T16:23:25.347Z,101005.86
2019-05-07T16:25:53.782Z,101003.09
2019-05-07T16:28:22.255Z,100991.73
2019-05-07T16:30:52.151Z,100993.01
2019-05-07T16:33:22.257Z,100990.52
2019-05-07T16:35:52.267Z,100989.84
2019-05-07T16:38:22.181Z,100986.98
2019-05-07T16:40:52.347Z,100985.40
2019-05-07T16:43:22.282Z,100986.84
2019-05-07T16:45:51.772Z,100980.25
2019-05-07T16:48:20.485Z,100980.70
2019-05-07T16:50:48.876Z,100982.83
2019-05-07T16:53:29.151Z,100972.45
2019-05-07T16:55:48.269Z,100972.44
2019-05-07T16:58:29.430Z,100970.73
2019-05-07T17:01:01.601Z,100972.89
2019-05-07T17:03:38.401Z,100976.22
2019-05-07T17:06:06.698Z,100965.67
2019-05-07T17:08:51.653Z,100972.81
2019-05-07T17:11:20.108Z,100969.97
2019-05-07T17:13:48.484Z,100968.87
2019-05-07T17:16:17.062Z,100966.22
2019-05-07T17:18:45.389Z,100961.77
2019-05-07T17:21:13.719Z,100959.13
2019-05-07T17:23:44.720Z,100962.80
2019-05-07T17:26:12.199Z,100958.86
2019-05-07T17:28:42.536Z,100953.88
2019-05-07T17:31:12.389Z,100954.70
2019-05-07T17:33:42.455Z,100958.78
2019-05-07T17:36:12.095Z,100950.53
2019-05-07T17:38:42.698Z,100948.89
2019-05-07T17:41:18.176Z,100952.10
2019-05-07T17:43:40.751Z,100946.86
2019-05-07T17:46:09.121Z,100944.84
2019-05-07T17:48:37.569Z,100946.27
2019-05-07T17:51:24.905Z,100936.84
2019-05-07T17:54:00.144Z,100943.27
2019-05-07T17:56:28.115Z,100939.20
2019-05-07T17:58:58.046Z,100935.63
2019-05-07T18:01:36.451Z,100940.11
2019-05-07T18:04:06.217Z,100930.67
2019-05-07T18:06:36.043Z,100931.14
2019-05-07T18:09:06.485Z,100926.80
2019-05-07T18:11:38.473Z,100924.97
2019-05-07T18:14:08.277Z,100929.22
2019-05-07T18:16:49.841Z,100932.28
2019-05-07T18:19:19.554Z,100920.00
2019-05-07T18:21:49.297Z,100920.58
2019-05-07T18:24:18.981Z,100920.16
2019-05-07T18:26:48.953Z,100918.71
2019-05-07T18:29:18.665Z,100913.52
2019-05-07T18:31:51.575Z,100921.58
2019-05-07T18:34:21.553Z,100917.50
2019-05-07T18:36:53.091Z,100918.89
2019-05-07T18:39:23.145Z,100914.72
2019-05-07T18:41:52.923Z,100916.61
2019-05-07T18:44:23.934Z,100913.45
2019-05-07T18:46:53.837Z,100913.84
2019-05-07T18:49:23.768Z,100916.66
2019-05-07T18:51:55.201Z,100911.37
2019-05-07T18:54:30.891Z,100919.23
2019-05-07T18:56:56.721Z,100916.61
2019-05-07T18:59:26.967Z,100916.92
2019-05-07T19:01:55.290Z,100912.69
2019-05-07T19:04:23.599Z,100911.80
2019-05-07T19:06:53.320Z,100914.41
2019-05-07T19:09:23.187Z,100917.09
2019-05-07T19:11:52.872Z,100921.22
2019-05-07T19:14:22.923Z,100914.16
2019-05-07T19:16:52.786Z,100912.66
2019-05-07T19:19:22.710Z,100908.08
2019-05-07T19:21:53.088Z,100910.54
2019-05-07T19:24:26.248Z,100906.56
2019-05-07T19:26:55.022Z,100909.70
2019-05-07T19:29:24.796Z,100912.04
2019-05-07T19:31:54.492Z,100909.09
2019-05-07T19:34:24.209Z,100907.78
2019-05-07T19:36:53.912Z,100906.50
2019-05-07T19:39:24.739Z,100912.80
2019-05-07T19:41:54.426Z,100910.77
2019-05-07T19:44:25.158Z,100904.91
2019-05-07T19:46:54.840Z,100909.85
2019-05-07T19:49:24.609Z,100914.83
2019-05-07T19:51:54.321Z,100915.86
2019-05-07T19:54:23.991Z,100903.54
2019-05-07T19:56:54.118Z,100910.39
2019-05-07T19:59:23.790Z,100909.83
2019-05-07T20:01:57.565Z,100913.39
2019-05-07T20:04:27.310Z,100899.77
2019-05-07T20:06:55.993Z,100903.33
2019-05-07T20:09:28.836Z,100900.58
2019-05-07T20:11:57.257Z,100901.59
2019-05-07T20:14:25.555Z,100900.73
2019-05-07T20:16:54.460Z,100901.12
2019-05-07T20:19:23.099Z,100894.23
2019-05-07T20:21:52.351Z,100895.64
2019-05-07T20:24:21.925Z,100897.09
2019-05-07T20:26:52.653Z,100897.48
2019-05-07T20:29:22.901Z,100892.08
2019-05-07T20:31:53.290Z,100893.10
2019-05-07T20:34:22.853Z,100888.75
2019-05-07T20:36:52.591Z,100885.47
2019-05-07T20:39:23.335Z,100881.20
2019-05-07T20:41:53.138Z,100875.05
2019-05-07T20:44:23.086Z,100873.73
2019-05-07T20:46:53.567Z,100867.13
2019-05-07T20:49:23.546Z,100867.78
2019-05-07T20:51:53.303Z,100855.77
2019-05-07T20:54:39.431Z,100852.59
2019-05-07T20:57:13.371Z,100848.20
2019-05-07T20:59:43.011Z,100842.41
2019-05-07T21:02:12.713Z,100842.88
2019-05-07T21:04:42.597Z,100837.92
2019-05-07T21:07:12.474Z,100834.67
2019-05-07T21:09:42.454Z,100828.55
2019-05-07T21:12:12.800Z,100816.72
2019-05-07T21:14:42.998Z,100820.17
2019-05-07T21:17:12.761Z,100814.27
2019-05-07T21:19:42.955Z,100812.32
2019-05-07T21:22:13.118Z,100808.97
2019-05-07T21:24:42.847Z,100803.66
2019-05-07T21:27:12.812Z,100808.48
2019-05-07T21:29:42.519Z,100806.63
2019-05-07T21:32:13.378Z,100806.53
2019-05-07T21:34:43.470Z,100808.00
2019-05-07T21:37:13.167Z,100801.75
2019-05-07T21:39:43.027Z,100805.75
2019-05-07T21:42:14.247Z,100805.10
2019-05-07T21:44:44.174Z,100804.06
2019-05-07T21:47:13.944Z,100801.36
2019-05-07T21:49:43.640Z,100799.50
2019-05-07T21:52:13.475Z,100794.55
2019-05-07T21:54:53.200Z,100793.95
2019-05-07T21:57:45.642Z,100784.70
2019-05-07T22:00:41.067Z,100778.79
2019-05-07T22:03:15.346Z,100778.79
2019-05-07T22:05:45.022Z,100782.48
2019-05-07T22:08:15.869Z,100775.03
2019-05-07T22:10:45.617Z,100773.42
2019-05-07T22:13:16.290Z,100772.02
2019-05-07T22:15:45.967Z,100765.10
2019-05-07T22:18:15.642Z,100773.61
2019-05-07T22:20:45.420Z,100776.00
2019-05-07T22:23:15.400Z,100769.36
2019-05-07T22:25:45.089Z,100774.20
2019-05-07T22:28:15.049Z,100762.08
2019-05-07T22:30:55.577Z,100761.65
2019-05-07T22:33:33.635Z,100753.64
2019-05-07T22:36:03.381Z,100752.52
2019-05-07T22:38:37.358Z,100737.47
2019-05-07T22:41:08.662Z,100726.41
2019-05-07T22:43:38.531Z,100727.84
2019-05-07T22:46:08.570Z,100725.43
2019-05-07T22:48:38.482Z,100718.18
2019-05-07T22:51:08.169Z,100713.85
2019-05-07T22:53:38.135Z,100715.78
2019-05-07T22:56:08.142Z,100714.18
2019-05-07T22:58:42.098Z,100703.72
2019-05-07T23:01:13.173Z,100702.74
2019-05-07T23:03:43.172Z,100700.33
2019-05-07T23:06:13.114Z,100700.41
2019-05-07T23:08:42.787Z,100691.77
2019-05-07T23:11:12.588Z,100687.56
2019-05-07T23:13:43.290Z,100685.75
2019-05-07T23:16:13.029Z,100685.75
2019-05-07T23:18:43.113Z,100682.03
2019-05-07T23:21:12.966Z,100683.02
2019-05-07T23:23:43.737Z,100681.50
2019-05-07T23:26:14.759Z,100678.32
2019-05-07T23:28:44.691Z,100675.65
2019-05-07T23:31:15.386Z,100666.52
2019-05-07T23:33:45.441Z,100676.25
2019-05-07T23:36:15.173Z,100670.92
2019-05-07T23:38:43.477Z,100667.34
2019-05-07T23:41:47.155Z,100668.55
2019-05-07T23:44:18.481Z,100658.44
2019-05-07T23:46:48.883Z,100655.22
2019-05-07T23:49:18.560Z,100657.22
2019-05-07T23:51:48.239Z,100649.21
2019-05-07T23:54:18.922Z,100645.31
2019-05-07T23:57:04.476Z,100633.42
2019-05-07T23:59:22.155Z,100635.25
